sensor_id;sensor_type;location;lat;lon;timestamp;P1;durP1;ratioP1;P2;durP2;ratioP2
173;SDS011;75;48.784;9.364;2022-08-01T00:01:15;5.13;;;4.20;;
173;SDS011;75;48.784;9.364;2022-08-01T00:03:41;5.30;;;4.33;;
173;SDS011;75;48.784;9.364;2022-08-01T00:06:07;6.13;;;4.30;;
173;SDS011;75;48.784;9.364;2022-08-01T00:08:32;7.30;;;4.27;;
173;SDS011;75;48.784;9.364;2022-08-01T00:10:58;5.27;;;4.37;;
173;SDS011;75;48.784;9.364;2022-08-01T00:13:23;6.03;;;4.33;;
173;SDS011;75;48.784;9.364;2022-08-01T00:15:49;5.50;;;4.17;;
173;SDS011;75;48.784;9.364;2022-08-01T00:18:14;5.63;;;4.47;;
173;SDS011;75;48.784;9.364;2022-08-01T00:20:40;5.90;;;4.30;;
173;SDS011;75;48.784;9.364;2022-08-01T00:23:05;4.90;;;3.80;;
173;SDS011;75;48.784;9.364;2022-08-01T00:25:31;5.20;;;4.30;;
173;SDS011;75;48.784;9.364;2022-08-01T00:27:57;16.07;;;4.63;;
173;SDS011;75;48.784;9.364;2022-08-01T00:30:22;5.50;;;4.40;;
173;SDS011;75;48.784;9.364;2022-08-01T00:32:48;7.53;;;4.47;;
173;SDS011;75;48.784;9.364;2022-08-01T00:35:13;6.10;;;4.40;;
173;SDS011;75;48.784;9.364;2022-08-01T00:37:39;5.70;;;4.07;;
173;SDS011;75;48.784;9.364;2022-08-01T00:40:05;5.53;;;4.10;;
173;SDS011;75;48.784;9.364;2022-08-01T00:42:32;5.40;;;4.20;;
173;SDS011;75;48.784;9.364;2022-08-01T00:44:57;6.90;;;4.80;;
173;SDS011;75;48.784;9.364;2022-08-01T00:47:23;5.17;;;4.30;;
173;SDS011;75;48.784;9.364;2022-08-01T00:49:48;5.60;;;4.43;;
173;SDS011;75;48.784;9.364;2022-08-01T00:52:14;6.17;;;3.67;;
173;SDS011;75;48.784;9.364;2022-08-01T00:54:40;5.13;;;4.50;;
173;SDS011;75;48.784;9.364;2022-08-01T00:57:05;6.17;;;4.73;;
173;SDS011;75;48.784;9.364;2022-08-01T00:59:32;5.40;;;4.40;;
173;SDS011;75;48.784;9.364;2022-08-01T01:01:59;5.40;;;4.63;;
173;SDS011;75;48.784;9.364;2022-08-01T01:04:25;9.23;;;4.97;;
173;SDS011;75;48.784;9.364;2022-08-01T01:09:33;8.10;;;5.10;;
173;SDS011;75;48.784;9.364;2022-08-01T01:15:26;6.80;;;4.50;;
173;SDS011;75;48.784;9.364;2022-08-01T01:18:05;6.73;;;4.57;;
173;SDS011;75;48.784;9.364;2022-08-01T01:20:39;5.83;;;4.40;;
173;SDS011;75;48.784;9.364;2022-08-01T01:31:55;7.47;;;4.97;;
173;SDS011;75;48.784;9.364;2022-08-01T01:34:27;8.43;;;4.97;;
173;SDS011;75;48.784;9.364;2022-08-01T01:39:49;6.00;;;4.50;;
173;SDS011;75;48.784;9.364;2022-08-01T01:42:17;5.67;;;4.43;;
173;SDS011;75;48.784;9.364;2022-08-01T01:44:44;5.80;;;4.73;;
173;SDS011;75;48.784;9.364;2022-08-01T01:47:12;6.27;;;4.70;;
173;SDS011;75;48.784;9.364;2022-08-01T01:49:38;6.23;;;4.90;;
173;SDS011;75;48.784;9.364;2022-08-01T01:52:06;5.67;;;4.47;;
173;SDS011;75;48.784;9.364;2022-08-01T01:54:36;6.20;;;4.50;;
173;SDS011;75;48.784;9.364;2022-08-01T01:57:04;6.23;;;4.90;;
173;SDS011;75;48.784;9.364;2022-08-01T01:59:33;5.50;;;4.90;;
173;SDS011;75;48.784;9.364;2022-08-01T02:02:03;7.10;;;5.17;;
173;SDS011;75;48.784;9.364;2022-08-01T02:04:30;6.00;;;4.97;;
173;SDS011;75;48.784;9.364;2022-08-01T02:06:57;9.80;;;4.80;;
173;SDS011;75;48.784;9.364;2022-08-01T02:09:26;6.40;;;4.80;;
173;SDS011;75;48.784;9.364;2022-08-01T02:11:53;6.57;;;4.83;;
173;SDS011;75;48.784;9.364;2022-08-01T02:14:22;6.30;;;4.83;;
173;SDS011;75;48.784;9.364;2022-08-01T02:16:48;9.80;;;4.90;;
173;SDS011;75;48.784;9.364;2022-08-01T02:19:17;6.60;;;4.77;;
173;SDS011;75;48.784;9.364;2022-08-01T02:21:48;6.13;;;4.90;;
173;SDS011;75;48.784;9.364;2022-08-01T02:27:21;6.53;;;4.70;;
173;SDS011;75;48.784;9.364;2022-08-01T02:29:56;5.40;;;4.67;;
173;SDS011;75;48.784;9.364;2022-08-01T02:32:25;7.63;;;4.70;;
173;SDS011;75;48.784;9.364;2022-08-01T02:34:55;5.60;;;4.70;;
173;SDS011;75;48.784;9.364;2022-08-01T02:37:22;6.10;;;4.87;;
173;SDS011;75;48.784;9.364;2022-08-01T02:39:51;8.67;;;5.37;;
173;SDS011;75;48.784;9.364;2022-08-01T02:42:19;6.20;;;5.10;;
173;SDS011;75;48.784;9.364;2022-08-01T02:44:46;7.57;;;4.83;;
173;SDS011;75;48.784;9.364;2022-08-01T02:47:13;5.33;;;4.67;;
173;SDS011;75;48.784;9.364;2022-08-01T02:49:42;6.00;;;4.90;;
173;SDS011;75;48.784;9.364;2022-08-01T02:52:12;6.93;;;5.03;;
173;SDS011;75;48.784;9.364;2022-08-01T02:54:40;6.63;;;5.00;;
173;SDS011;75;48.784;9.364;2022-08-01T02:57:09;5.80;;;5.17;;
173;SDS011;75;48.784;9.364;2022-08-01T02:59:36;5.70;;;4.17;;
173;SDS011;75;48.784;9.364;2022-08-01T03:02:04;6.90;;;5.13;;
173;SDS011;75;48.784;9.364;2022-08-01T03:04:32;6.27;;;4.90;;
173;SDS011;75;48.784;9.364;2022-08-01T03:07:00;7.87;;;5.20;;
173;SDS011;75;48.784;9.364;2022-08-01T03:09:28;6.03;;;5.13;;
173;SDS011;75;48.784;9.364;2022-08-01T03:11:57;8.63;;;5.37;;
173;SDS011;75;48.784;9.364;2022-08-01T03:14:25;6.03;;;5.10;;
173;SDS011;75;48.784;9.364;2022-08-01T03:16:53;6.23;;;4.90;;
173;SDS011;75;48.784;9.364;2022-08-01T03:19:20;9.90;;;5.50;;
173;SDS011;75;48.784;9.364;2022-08-01T03:21:49;6.47;;;5.30;;
173;SDS011;75;48.784;9.364;2022-08-01T03:24:16;9.33;;;5.20;;
173;SDS011;75;48.784;9.364;2022-08-01T03:26:44;7.77;;;5.47;;
173;SDS011;75;48.784;9.364;2022-08-01T03:29:21;7.60;;;5.03;;
173;SDS011;75;48.784;9.364;2022-08-01T03:31:49;6.87;;;5.40;;
173;SDS011;75;48.784;9.364;2022-08-01T03:34:16;6.40;;;5.40;;
173;SDS011;75;48.784;9.364;2022-08-01T03:37:05;6.47;;;4.70;;
173;SDS011;75;48.784;9.364;2022-08-01T03:39:44;5.60;;;4.93;;
173;SDS011;75;48.784;9.364;2022-08-01T03:42:14;6.53;;;5.43;;
173;SDS011;75;48.784;9.364;2022-08-01T03:44:46;8.00;;;5.33;;
173;SDS011;75;48.784;9.364;2022-08-01T03:47:17;7.13;;;5.90;;
173;SDS011;75;48.784;9.364;2022-08-01T03:49:44;6.60;;;5.40;;
173;SDS011;75;48.784;9.364;2022-08-01T03:52:12;9.90;;;5.63;;
173;SDS011;75;48.784;9.364;2022-08-01T03:54:43;8.70;;;6.10;;
173;SDS011;75;48.784;9.364;2022-08-01T03:57:13;7.47;;;5.70;;
173;SDS011;75;48.784;9.364;2022-08-01T03:59:39;8.00;;;5.80;;
173;SDS011;75;48.784;9.364;2022-08-01T04:02:06;7.33;;;5.97;;
173;SDS011;75;48.784;9.364;2022-08-01T04:04:33;9.20;;;6.10;;
173;SDS011;75;48.784;9.364;2022-08-01T04:06:58;8.60;;;5.50;;
173;SDS011;75;48.784;9.364;2022-08-01T04:09:29;8.20;;;6.00;;
173;SDS011;75;48.784;9.364;2022-08-01T04:11:56;8.67;;;6.00;;
173;SDS011;75;48.784;9.364;2022-08-01T04:14:23;7.97;;;5.70;;
173;SDS011;75;48.784;9.364;2022-08-01T04:16:49;6.73;;;5.50;;
173;SDS011;75;48.784;9.364;2022-08-01T04:19:15;6.00;;;5.30;;
173;SDS011;75;48.784;9.364;2022-08-01T04:21:40;8.13;;;5.23;;
173;SDS011;75;48.784;9.364;2022-08-01T04:24:14;8.30;;;5.60;;
173;SDS011;75;48.784;9.364;2022-08-01T04:26:43;10.43;;;5.90;;
173;SDS011;75;48.784;9.364;2022-08-01T04:29:11;7.43;;;5.80;;
173;SDS011;75;48.784;9.364;2022-08-01T04:31:41;6.93;;;5.60;;
173;SDS011;75;48.784;9.364;2022-08-01T04:34:09;7.53;;;5.27;;
173;SDS011;75;48.784;9.364;2022-08-01T04:36:37;6.10;;;4.80;;
173;SDS011;75;48.784;9.364;2022-08-01T04:39:06;6.90;;;5.13;;
173;SDS011;75;48.784;9.364;2022-08-01T04:41:33;7.83;;;5.60;;
173;SDS011;75;48.784;9.364;2022-08-01T04:44:01;14.07;;;9.80;;
173;SDS011;75;48.784;9.364;2022-08-01T04:46:28;6.57;;;5.37;;
173;SDS011;75;48.784;9.364;2022-08-01T04:48:54;7.40;;;5.10;;
173;SDS011;75;48.784;9.364;2022-08-01T04:51:21;6.90;;;4.80;;
173;SDS011;75;48.784;9.364;2022-08-01T04:53:47;6.60;;;4.90;;
173;SDS011;75;48.784;9.364;2022-08-01T04:56:14;5.57;;;4.90;;
173;SDS011;75;48.784;9.364;2022-08-01T04:58:41;5.43;;;4.80;;
173;SDS011;75;48.784;9.364;2022-08-01T05:01:08;7.90;;;4.73;;
173;SDS011;75;48.784;9.364;2022-08-01T05:03:35;7.33;;;5.00;;
173;SDS011;75;48.784;9.364;2022-08-01T05:06:01;6.60;;;4.80;;
173;SDS011;75;48.784;9.364;2022-08-01T05:08:27;5.53;;;4.63;;
173;SDS011;75;48.784;9.364;2022-08-01T05:10:53;5.80;;;4.60;;
173;SDS011;75;48.784;9.364;2022-08-01T05:13:18;5.07;;;4.27;;
173;SDS011;75;48.784;9.364;2022-08-01T05:15:44;9.10;;;4.23;;
173;SDS011;75;48.784;9.364;2022-08-01T05:18:10;5.30;;;4.77;;
173;SDS011;75;48.784;9.364;2022-08-01T05:20:36;6.23;;;4.30;;
173;SDS011;75;48.784;9.364;2022-08-01T05:23:02;5.50;;;3.93;;
173;SDS011;75;48.784;9.364;2022-08-01T05:25:31;6.50;;;4.10;;
173;SDS011;75;48.784;9.364;2022-08-01T05:27:57;5.97;;;4.47;;
173;SDS011;75;48.784;9.364;2022-08-01T05:30:22;6.07;;;4.27;;
173;SDS011;75;48.784;9.364;2022-08-01T05:32:48;5.60;;;4.30;;
173;SDS011;75;48.784;9.364;2022-08-01T05:35:14;5.50;;;4.23;;
173;SDS011;75;48.784;9.364;2022-08-01T05:37:39;5.17;;;3.77;;
173;SDS011;75;48.784;9.364;2022-08-01T05:40:05;5.37;;;4.30;;
173;SDS011;75;48.784;9.364;2022-08-01T05:42:31;7.83;;;4.00;;
173;SDS011;75;48.784;9.364;2022-08-01T05:44:57;4.43;;;3.80;;
173;SDS011;75;48.784;9.364;2022-08-01T05:47:22;4.83;;;3.70;;
173;SDS011;75;48.784;9.364;2022-08-01T05:49:48;6.07;;;4.10;;
173;SDS011;75;48.784;9.364;2022-08-01T05:52:14;5.37;;;3.63;;
173;SDS011;75;48.784;9.364;2022-08-01T05:54:39;8.90;;;3.67;;
173;SDS011;75;48.784;9.364;2022-08-01T05:57:05;5.23;;;3.37;;
173;SDS011;75;48.784;9.364;2022-08-01T05:59:31;3.87;;;3.23;;
173;SDS011;75;48.784;9.364;2022-08-01T06:01:57;4.57;;;3.60;;
173;SDS011;75;48.784;9.364;2022-08-01T06:04:22;5.60;;;4.23;;
173;SDS011;75;48.784;9.364;2022-08-01T06:06:48;6.77;;;4.50;;
173;SDS011;75;48.784;9.364;2022-08-01T06:09:14;5.03;;;4.53;;
173;SDS011;75;48.784;9.364;2022-08-01T06:11:40;6.80;;;4.13;;
173;SDS011;75;48.784;9.364;2022-08-01T06:14:06;7.60;;;4.43;;
173;SDS011;75;48.784;9.364;2022-08-01T06:16:31;7.17;;;5.00;;
173;SDS011;75;48.784;9.364;2022-08-01T06:18:57;6.87;;;5.00;;
173;SDS011;75;48.784;9.364;2022-08-01T06:21:23;9.03;;;4.80;;
173;SDS011;75;48.784;9.364;2022-08-01T06:23:48;8.00;;;4.10;;
173;SDS011;75;48.784;9.364;2022-08-01T06:26:16;5.57;;;4.10;;
173;SDS011;75;48.784;9.364;2022-08-01T06:28:43;4.83;;;3.83;;
173;SDS011;75;48.784;9.364;2022-08-01T06:31:09;6.40;;;4.17;;
173;SDS011;75;48.784;9.364;2022-08-01T06:33:36;4.40;;;3.60;;
173;SDS011;75;48.784;9.364;2022-08-01T06:36:02;6.20;;;3.57;;
173;SDS011;75;48.784;9.364;2022-08-01T06:38:28;4.90;;;4.00;;
173;SDS011;75;48.784;9.364;2022-08-01T06:40:54;5.83;;;3.60;;
173;SDS011;75;48.784;9.364;2022-08-01T06:43:19;4.33;;;3.30;;
173;SDS011;75;48.784;9.364;2022-08-01T06:45:46;5.77;;;3.77;;
173;SDS011;75;48.784;9.364;2022-08-01T06:48:12;6.90;;;4.10;;
173;SDS011;75;48.784;9.364;2022-08-01T06:50:38;5.30;;;3.77;;
173;SDS011;75;48.784;9.364;2022-08-01T06:53:03;4.43;;;3.23;;
173;SDS011;75;48.784;9.364;2022-08-01T06:55:29;4.43;;;3.60;;
173;SDS011;75;48.784;9.364;2022-08-01T06:57:55;4.60;;;3.70;;
173;SDS011;75;48.784;9.364;2022-08-01T07:00:21;4.30;;;3.07;;
173;SDS011;75;48.784;9.364;2022-08-01T07:02:52;5.27;;;3.23;;
173;SDS011;75;48.784;9.364;2022-08-01T07:05:19;4.07;;;2.90;;
173;SDS011;75;48.784;9.364;2022-08-01T07:07:45;4.87;;;3.53;;
173;SDS011;75;48.784;9.364;2022-08-01T07:10:11;4.50;;;3.00;;
173;SDS011;75;48.784;9.364;2022-08-01T07:12:36;5.73;;;3.00;;
173;SDS011;75;48.784;9.364;2022-08-01T07:15:06;3.50;;;2.80;;
173;SDS011;75;48.784;9.364;2022-08-01T07:17:36;4.80;;;3.00;;
173;SDS011;75;48.784;9.364;2022-08-01T07:20:02;3.70;;;2.87;;
173;SDS011;75;48.784;9.364;2022-08-01T07:22:28;4.53;;;2.83;;
173;SDS011;75;48.784;9.364;2022-08-01T07:24:54;3.93;;;3.07;;
173;SDS011;75;48.784;9.364;2022-08-01T07:27:20;3.50;;;3.03;;
173;SDS011;75;48.784;9.364;2022-08-01T07:29:45;4.03;;;3.20;;
173;SDS011;75;48.784;9.364;2022-08-01T07:32:11;4.07;;;3.10;;
173;SDS011;75;48.784;9.364;2022-08-01T07:34:37;5.40;;;3.20;;
173;SDS011;75;48.784;9.364;2022-08-01T07:37:02;3.77;;;3.13;;
173;SDS011;75;48.784;9.364;2022-08-01T07:39:28;5.27;;;2.83;;
173;SDS011;75;48.784;9.364;2022-08-01T07:41:53;3.80;;;2.93;;
173;SDS011;75;48.784;9.364;2022-08-01T07:44:19;5.17;;;2.83;;
173;SDS011;75;48.784;9.364;2022-08-01T07:46:45;4.10;;;3.30;;
173;SDS011;75;48.784;9.364;2022-08-01T07:49:10;4.60;;;3.13;;
173;SDS011;75;48.784;9.364;2022-08-01T07:51:36;5.20;;;3.20;;
173;SDS011;75;48.784;9.364;2022-08-01T07:54:03;5.40;;;3.00;;
173;SDS011;75;48.784;9.364;2022-08-01T07:56:28;4.90;;;3.00;;
173;SDS011;75;48.784;9.364;2022-08-01T07:58:54;3.67;;;3.10;;
173;SDS011;75;48.784;9.364;2022-08-01T08:01:19;5.90;;;3.27;;
173;SDS011;75;48.784;9.364;2022-08-01T08:03:46;4.23;;;3.10;;
173;SDS011;75;48.784;9.364;2022-08-01T08:06:11;5.70;;;3.40;;
173;SDS011;75;48.784;9.364;2022-08-01T08:08:37;4.13;;;3.20;;
173;SDS011;75;48.784;9.364;2022-08-01T08:11:03;4.10;;;3.20;;
173;SDS011;75;48.784;9.364;2022-08-01T08:13:29;7.20;;;3.43;;
173;SDS011;75;48.784;9.364;2022-08-01T08:15:54;6.00;;;3.30;;
173;SDS011;75;48.784;9.364;2022-08-01T08:18:20;4.40;;;3.10;;
173;SDS011;75;48.784;9.364;2022-08-01T08:20:46;4.00;;;3.30;;
173;SDS011;75;48.784;9.364;2022-08-01T08:23:12;5.37;;;3.80;;
173;SDS011;75;48.784;9.364;2022-08-01T08:25:56;4.60;;;3.60;;
173;SDS011;75;48.784;9.364;2022-08-01T08:28:22;4.20;;;3.40;;
173;SDS011;75;48.784;9.364;2022-08-01T08:30:47;3.97;;;3.13;;
173;SDS011;75;48.784;9.364;2022-08-01T08:33:13;4.60;;;3.20;;
173;SDS011;75;48.784;9.364;2022-08-01T08:35:39;5.90;;;3.40;;
173;SDS011;75;48.784;9.364;2022-08-01T08:38:06;4.30;;;3.60;;
173;SDS011;75;48.784;9.364;2022-08-01T08:40:32;6.80;;;3.43;;
173;SDS011;75;48.784;9.364;2022-08-01T08:43:00;6.83;;;3.30;;
173;SDS011;75;48.784;9.364;2022-08-01T08:45:29;4.13;;;3.40;;
173;SDS011;75;48.784;9.364;2022-08-01T08:47:56;6.13;;;3.50;;
173;SDS011;75;48.784;9.364;2022-08-01T08:50:23;6.20;;;3.60;;
173;SDS011;75;48.784;9.364;2022-08-01T08:52:50;4.43;;;3.90;;
173;SDS011;75;48.784;9.364;2022-08-01T08:55:19;5.50;;;3.70;;
173;SDS011;75;48.784;9.364;2022-08-01T08:57:45;4.57;;;3.63;;
173;SDS011;75;48.784;9.364;2022-08-01T09:00:13;4.73;;;3.70;;
173;SDS011;75;48.784;9.364;2022-08-01T09:02:42;4.47;;;3.57;;
173;SDS011;75;48.784;9.364;2022-08-01T09:05:09;5.27;;;3.87;;
173;SDS011;75;48.784;9.364;2022-08-01T09:07:35;4.73;;;3.80;;
173;SDS011;75;48.784;9.364;2022-08-01T09:10:02;5.30;;;3.70;;
173;SDS011;75;48.784;9.364;2022-08-01T09:12:28;5.83;;;4.00;;
173;SDS011;75;48.784;9.364;2022-08-01T09:14:54;6.23;;;3.90;;
173;SDS011;75;48.784;9.364;2022-08-01T09:17:19;6.00;;;3.57;;
173;SDS011;75;48.784;9.364;2022-08-01T09:19:47;5.70;;;3.50;;
173;SDS011;75;48.784;9.364;2022-08-01T09:22:17;4.60;;;3.90;;
173;SDS011;75;48.784;9.364;2022-08-01T09:24:59;7.40;;;3.70;;
173;SDS011;75;48.784;9.364;2022-08-01T09:27:33;7.00;;;4.33;;
173;SDS011;75;48.784;9.364;2022-08-01T09:30:14;6.30;;;4.30;;
173;SDS011;75;48.784;9.364;2022-08-01T09:32:53;6.70;;;4.97;;
173;SDS011;75;48.784;9.364;2022-08-01T09:35:29;6.23;;;4.80;;
173;SDS011;75;48.784;9.364;2022-08-01T09:38:11;7.37;;;5.30;;
173;SDS011;75;48.784;9.364;2022-08-01T09:40:45;11.70;;;5.50;;
173;SDS011;75;48.784;9.364;2022-08-01T09:43:16;6.53;;;5.57;;
173;SDS011;75;48.784;9.364;2022-08-01T09:45:43;6.03;;;4.93;;
173;SDS011;75;48.784;9.364;2022-08-01T09:48:09;7.43;;;5.50;;
173;SDS011;75;48.784;9.364;2022-08-01T09:50:40;7.87;;;5.37;;
173;SDS011;75;48.784;9.364;2022-08-01T09:53:07;6.73;;;5.17;;
173;SDS011;75;48.784;9.364;2022-08-01T09:55:33;7.60;;;5.40;;
173;SDS011;75;48.784;9.364;2022-08-01T09:57:59;9.77;;;6.80;;
173;SDS011;75;48.784;9.364;2022-08-01T10:00:26;11.63;;;7.00;;
173;SDS011;75;48.784;9.364;2022-08-01T10:02:52;8.70;;;6.90;;
173;SDS011;75;48.784;9.364;2022-08-01T10:05:18;11.17;;;8.17;;
173;SDS011;75;48.784;9.364;2022-08-01T10:07:59;9.70;;;7.00;;
173;SDS011;75;48.784;9.364;2022-08-01T10:10:27;10.73;;;6.80;;
173;SDS011;75;48.784;9.364;2022-08-01T10:12:53;11.07;;;7.87;;
173;SDS011;75;48.784;9.364;2022-08-01T10:15:20;8.97;;;6.17;;
173;SDS011;75;48.784;9.364;2022-08-01T10:17:52;6.97;;;5.03;;
173;SDS011;75;48.784;9.364;2022-08-01T10:20:19;7.93;;;6.40;;
173;SDS011;75;48.784;9.364;2022-08-01T10:22:46;9.03;;;6.20;;
173;SDS011;75;48.784;9.364;2022-08-01T10:25:12;8.40;;;6.13;;
173;SDS011;75;48.784;9.364;2022-08-01T10:27:42;8.43;;;6.23;;
173;SDS011;75;48.784;9.364;2022-08-01T10:30:10;8.17;;;6.40;;
173;SDS011;75;48.784;9.364;2022-08-01T10:32:36;9.97;;;7.27;;
173;SDS011;75;48.784;9.364;2022-08-01T10:35:03;10.73;;;7.07;;
173;SDS011;75;48.784;9.364;2022-08-01T10:37:29;8.97;;;6.97;;
173;SDS011;75;48.784;9.364;2022-08-01T10:39:55;9.60;;;7.37;;
173;SDS011;75;48.784;9.364;2022-08-01T10:42:22;7.70;;;6.50;;
173;SDS011;75;48.784;9.364;2022-08-01T10:44:48;10.23;;;6.73;;
173;SDS011;75;48.784;9.364;2022-08-01T10:47:15;8.27;;;6.47;;
173;SDS011;75;48.784;9.364;2022-08-01T10:49:54;8.60;;;7.23;;
173;SDS011;75;48.784;9.364;2022-08-01T10:52:27;9.40;;;6.87;;
173;SDS011;75;48.784;9.364;2022-08-01T10:55:06;9.23;;;7.13;;
173;SDS011;75;48.784;9.364;2022-08-01T10:57:41;9.10;;;6.00;;
173;SDS011;75;48.784;9.364;2022-08-01T11:00:08;8.20;;;6.30;;
173;SDS011;75;48.784;9.364;2022-08-01T11:02:34;7.57;;;5.80;;
173;SDS011;75;48.784;9.364;2022-08-01T11:05:09;8.00;;;5.60;;
173;SDS011;75;48.784;9.364;2022-08-01T11:07:48;6.10;;;5.50;;
173;SDS011;75;48.784;9.364;2022-08-01T11:10:25;5.83;;;5.00;;
173;SDS011;75;48.784;9.364;2022-08-01T11:13:04;5.93;;;4.90;;
173;SDS011;75;48.784;9.364;2022-08-01T11:15:33;6.80;;;5.40;;
173;SDS011;75;48.784;9.364;2022-08-01T11:18:00;5.40;;;5.00;;
173;SDS011;75;48.784;9.364;2022-08-01T11:20:31;8.37;;;5.37;;
173;SDS011;75;48.784;9.364;2022-08-01T11:30:48;8.93;;;5.43;;
173;SDS011;75;48.784;9.364;2022-08-01T11:33:17;8.03;;;5.20;;
173;SDS011;75;48.784;9.364;2022-08-01T11:38:34;6.00;;;5.10;;
173;SDS011;75;48.784;9.364;2022-08-01T11:41:22;6.37;;;4.97;;
173;SDS011;75;48.784;9.364;2022-08-01T11:44:03;5.10;;;4.70;;
173;SDS011;75;48.784;9.364;2022-08-01T11:52:06;6.53;;;4.43;;
173;SDS011;75;48.784;9.364;2022-08-01T11:54:44;6.00;;;5.17;;
173;SDS011;75;48.784;9.364;2022-08-01T11:57:24;7.13;;;4.87;;
173;SDS011;75;48.784;9.364;2022-08-01T11:59:54;6.37;;;4.17;;
173;SDS011;75;48.784;9.364;2022-08-01T12:02:28;7.87;;;4.37;;
173;SDS011;75;48.784;9.364;2022-08-01T12:04:56;5.53;;;4.70;;
173;SDS011;75;48.784;9.364;2022-08-01T12:07:24;5.20;;;4.10;;
173;SDS011;75;48.784;9.364;2022-08-01T12:09:56;5.70;;;4.27;;
173;SDS011;75;48.784;9.364;2022-08-01T12:12:23;6.20;;;4.63;;
173;SDS011;75;48.784;9.364;2022-08-01T12:14:53;6.20;;;4.23;;
173;SDS011;75;48.784;9.364;2022-08-01T12:17:27;5.73;;;4.37;;
173;SDS011;75;48.784;9.364;2022-08-01T12:19:58;5.43;;;4.10;;
173;SDS011;75;48.784;9.364;2022-08-01T12:22:25;5.33;;;4.70;;
173;SDS011;75;48.784;9.364;2022-08-01T12:24:50;6.50;;;4.90;;
173;SDS011;75;48.784;9.364;2022-08-01T12:27:29;6.43;;;4.57;;
173;SDS011;75;48.784;9.364;2022-08-01T12:29:58;5.10;;;4.57;;
173;SDS011;75;48.784;9.364;2022-08-01T12:35:16;5.07;;;4.43;;
173;SDS011;75;48.784;9.364;2022-08-01T12:37:50;5.60;;;4.33;;
173;SDS011;75;48.784;9.364;2022-08-01T12:40:21;7.30;;;4.43;;
173;SDS011;75;48.784;9.364;2022-08-01T12:42:50;6.27;;;4.10;;
173;SDS011;75;48.784;9.364;2022-08-01T12:45:37;5.97;;;4.20;;
173;SDS011;75;48.784;9.364;2022-08-01T12:48:10;5.40;;;4.47;;
173;SDS011;75;48.784;9.364;2022-08-01T12:50:38;4.80;;;4.27;;
173;SDS011;75;48.784;9.364;2022-08-01T12:53:05;4.37;;;4.10;;
173;SDS011;75;48.784;9.364;2022-08-01T12:55:34;6.90;;;4.53;;
173;SDS011;75;48.784;9.364;2022-08-01T12:58:19;8.60;;;4.53;;
173;SDS011;75;48.784;9.364;2022-08-01T13:00:46;6.93;;;4.30;;
173;SDS011;75;48.784;9.364;2022-08-01T13:03:14;6.27;;;4.73;;
173;SDS011;75;48.784;9.364;2022-08-01T13:05:54;6.80;;;5.00;;
173;SDS011;75;48.784;9.364;2022-08-01T13:08:22;6.40;;;4.47;;
173;SDS011;75;48.784;9.364;2022-08-01T13:11:00;5.07;;;4.30;;
173;SDS011;75;48.784;9.364;2022-08-01T13:13:39;5.80;;;4.27;;
173;SDS011;75;48.784;9.364;2022-08-01T13:16:07;8.80;;;4.20;;
173;SDS011;75;48.784;9.364;2022-08-01T13:18:34;5.50;;;4.13;;
173;SDS011;75;48.784;9.364;2022-08-01T13:21:13;7.57;;;5.30;;
173;SDS011;75;48.784;9.364;2022-08-01T13:29:15;6.13;;;4.30;;
173;SDS011;75;48.784;9.364;2022-08-01T13:31:42;5.43;;;4.20;;
173;SDS011;75;48.784;9.364;2022-08-01T13:34:08;4.40;;;4.03;;
173;SDS011;75;48.784;9.364;2022-08-01T13:36:34;6.47;;;4.30;;
173;SDS011;75;48.784;9.364;2022-08-01T13:39:01;6.90;;;4.50;;
173;SDS011;75;48.784;9.364;2022-08-01T13:41:46;5.70;;;4.03;;
173;SDS011;75;48.784;9.364;2022-08-01T13:44:12;6.53;;;4.60;;
173;SDS011;75;48.784;9.364;2022-08-01T13:46:39;5.67;;;4.10;;
173;SDS011;75;48.784;9.364;2022-08-01T13:49:06;7.03;;;4.70;;
173;SDS011;75;48.784;9.364;2022-08-01T13:51:34;5.53;;;3.77;;
173;SDS011;75;48.784;9.364;2022-08-01T13:54:00;8.53;;;4.47;;
173;SDS011;75;48.784;9.364;2022-08-01T13:56:26;4.67;;;4.07;;
173;SDS011;75;48.784;9.364;2022-08-01T13:58:53;5.27;;;3.80;;
173;SDS011;75;48.784;9.364;2022-08-01T14:01:19;4.30;;;3.90;;
173;SDS011;75;48.784;9.364;2022-08-01T14:03:45;6.97;;;4.07;;
173;SDS011;75;48.784;9.364;2022-08-01T14:06:11;4.50;;;3.60;;
173;SDS011;75;48.784;9.364;2022-08-01T14:08:39;5.10;;;3.70;;
173;SDS011;75;48.784;9.364;2022-08-01T14:11:04;5.13;;;4.17;;
173;SDS011;75;48.784;9.364;2022-08-01T14:13:30;6.47;;;4.20;;
173;SDS011;75;48.784;9.364;2022-08-01T14:15:56;7.80;;;4.00;;
173;SDS011;75;48.784;9.364;2022-08-01T14:18:21;7.53;;;5.10;;
173;SDS011;75;48.784;9.364;2022-08-01T14:20:47;5.53;;;4.00;;
173;SDS011;75;48.784;9.364;2022-08-01T14:23:12;6.13;;;3.43;;
173;SDS011;75;48.784;9.364;2022-08-01T14:25:38;5.90;;;3.80;;
173;SDS011;75;48.784;9.364;2022-08-01T14:28:06;6.93;;;4.43;;
173;SDS011;75;48.784;9.364;2022-08-01T14:30:32;5.07;;;3.97;;
173;SDS011;75;48.784;9.364;2022-08-01T14:32:58;5.33;;;3.97;;
173;SDS011;75;48.784;9.364;2022-08-01T14:35:24;5.40;;;3.40;;
173;SDS011;75;48.784;9.364;2022-08-01T14:37:50;3.90;;;3.40;;
173;SDS011;75;48.784;9.364;2022-08-01T14:40:16;7.50;;;3.60;;
173;SDS011;75;48.784;9.364;2022-08-01T14:42:42;6.53;;;4.40;;
173;SDS011;75;48.784;9.364;2022-08-01T14:45:09;6.53;;;3.60;;
173;SDS011;75;48.784;9.364;2022-08-01T14:47:37;10.73;;;4.60;;
173;SDS011;75;48.784;9.364;2022-08-01T14:50:04;6.47;;;3.93;;
173;SDS011;75;48.784;9.364;2022-08-01T14:52:31;8.37;;;3.90;;
173;SDS011;75;48.784;9.364;2022-08-01T14:54:57;5.27;;;4.10;;
173;SDS011;75;48.784;9.364;2022-08-01T14:57:23;5.10;;;3.73;;
173;SDS011;75;48.784;9.364;2022-08-01T14:59:49;6.13;;;3.50;;
173;SDS011;75;48.784;9.364;2022-08-01T15:02:14;4.37;;;3.30;;
173;SDS011;75;48.784;9.364;2022-08-01T15:04:45;4.77;;;3.60;;
173;SDS011;75;48.784;9.364;2022-08-01T15:07:12;5.53;;;4.00;;
173;SDS011;75;48.784;9.364;2022-08-01T15:09:38;5.70;;;4.00;;
173;SDS011;75;48.784;9.364;2022-08-01T15:12:04;5.77;;;3.80;;
173;SDS011;75;48.784;9.364;2022-08-01T15:14:30;7.00;;;4.20;;
173;SDS011;75;48.784;9.364;2022-08-01T15:19:41;5.60;;;3.63;;
173;SDS011;75;48.784;9.364;2022-08-01T15:22:07;7.70;;;4.03;;
173;SDS011;75;48.784;9.364;2022-08-01T15:24:33;7.90;;;4.10;;
173;SDS011;75;48.784;9.364;2022-08-01T15:26:58;5.47;;;3.60;;
173;SDS011;75;48.784;9.364;2022-08-01T15:29:24;5.70;;;3.63;;
173;SDS011;75;48.784;9.364;2022-08-01T15:31:50;4.20;;;3.57;;
173;SDS011;75;48.784;9.364;2022-08-01T15:34:15;4.60;;;3.77;;
173;SDS011;75;48.784;9.364;2022-08-01T15:36:41;4.43;;;3.60;;
173;SDS011;75;48.784;9.364;2022-08-01T15:39:10;7.00;;;3.30;;
173;SDS011;75;48.784;9.364;2022-08-01T15:41:36;4.10;;;3.40;;
173;SDS011;75;48.784;9.364;2022-08-01T15:44:02;4.10;;;3.40;;
173;SDS011;75;48.784;9.364;2022-08-01T15:46:27;5.60;;;3.87;;
173;SDS011;75;48.784;9.364;2022-08-01T15:48:53;4.70;;;3.83;;
173;SDS011;75;48.784;9.364;2022-08-01T15:51:19;7.20;;;4.07;;
173;SDS011;75;48.784;9.364;2022-08-01T15:53:45;6.80;;;4.13;;
173;SDS011;75;48.784;9.364;2022-08-01T15:56:11;5.23;;;3.60;;
173;SDS011;75;48.784;9.364;2022-08-01T15:58:37;3.83;;;3.10;;
173;SDS011;75;48.784;9.364;2022-08-01T16:01:03;6.63;;;3.77;;
173;SDS011;75;48.784;9.364;2022-08-01T16:03:29;5.20;;;3.70;;
173;SDS011;75;48.784;9.364;2022-08-01T16:05:54;7.43;;;4.80;;
173;SDS011;75;48.784;9.364;2022-08-01T16:08:20;4.60;;;3.70;;
173;SDS011;75;48.784;9.364;2022-08-01T16:10:46;5.00;;;3.67;;
173;SDS011;75;48.784;9.364;2022-08-01T16:13:12;4.90;;;3.60;;
173;SDS011;75;48.784;9.364;2022-08-01T16:15:38;5.10;;;3.17;;
173;SDS011;75;48.784;9.364;2022-08-01T16:18:07;4.70;;;3.40;;
173;SDS011;75;48.784;9.364;2022-08-01T16:20:34;7.00;;;3.60;;
173;SDS011;75;48.784;9.364;2022-08-01T16:23:00;4.63;;;3.70;;
173;SDS011;75;48.784;9.364;2022-08-01T16:25:26;4.60;;;3.53;;
173;SDS011;75;48.784;9.364;2022-08-01T16:27:51;7.40;;;3.13;;
173;SDS011;75;48.784;9.364;2022-08-01T16:30:17;5.03;;;3.20;;
173;SDS011;75;48.784;9.364;2022-08-01T16:32:43;6.50;;;3.60;;
173;SDS011;75;48.784;9.364;2022-08-01T16:35:08;5.60;;;3.57;;
173;SDS011;75;48.784;9.364;2022-08-01T16:37:34;4.07;;;3.40;;
173;SDS011;75;48.784;9.364;2022-08-01T16:40:00;6.43;;;3.40;;
173;SDS011;75;48.784;9.364;2022-08-01T16:42:25;4.20;;;3.10;;
173;SDS011;75;48.784;9.364;2022-08-01T16:44:51;4.67;;;2.87;;
173;SDS011;75;48.784;9.364;2022-08-01T16:47:17;4.17;;;2.90;;
173;SDS011;75;48.784;9.364;2022-08-01T16:49:42;6.43;;;3.27;;
173;SDS011;75;48.784;9.364;2022-08-01T16:52:08;4.80;;;3.20;;